sensor_id;sensor_type;location;lat;lon;timestamp;P1;durP1;ratioP1;P2;durP2;ratioP2
61764;SDS011;50188;48.114;-1.388;2022-09-25T00:02:03;4.32;;;2.25;;
61764;SDS011;50188;48.114;-1.388;2022-09-25T00:04:29;4.03;;;2.10;;
61764;SDS011;50188;48.114;-1.388;2022-09-25T00:06:55;7.82;;;3.10;;
61764;SDS011;50188;48.114;-1.388;2022-09-25T00:09:20;4.93;;;2.40;;
61764;SDS011;50188;48.114;-1.388;2022-09-25T00:11:47;3.53;;;2.40;;
61764;SDS011;50188;48.114;-1.388;2022-09-25T00:14:13;5.63;;;3.45;;
61764;SDS011;50188;48.114;-1.388;2022-09-25T00:16:38;3.88;;;1.83;;
61764;SDS011;50188;48.114;-1.388;2022-09-25T00:19:04;5.45;;;2.53;;
61764;SDS011;50188;48.114;-1.388;2022-09-25T00:21:50;4.82;;;2.58;;
61764;SDS011;50188;48.114;-1.388;2022-09-25T00:24:17;2.85;;;2.25;;
61764;SDS011;50188;48.114;-1.388;2022-09-25T00:26:43;5.90;;;2.60;;
61764;SDS011;50188;48.114;-1.388;2022-09-25T00:29:16;5.38;;;2.20;;
61764;SDS011;50188;48.114;-1.388;2022-09-25T00:31:44;5.18;;;2.40;;
61764;SDS011;50188;48.114;-1.388;2022-09-25T00:34:10;7.43;;;2.95;;
61764;SDS011;50188;48.114;-1.388;2022-09-25T00:36:36;3.95;;;2.58;;
61764;SDS011;50188;48.114;-1.388;2022-09-25T00:39:02;7.40;;;2.22;;
61764;SDS011;50188;48.114;-1.388;2022-09-25T00:41:28;5.85;;;2.95;;
61764;SDS011;50188;48.114;-1.388;2022-09-25T00:43:56;4.18;;;2.67;;
61764;SDS011;50188;48.114;-1.388;2022-09-25T00:46:28;2.33;;;2.17;;
61764;SDS011;50188;48.114;-1.388;2022-09-25T00:49:09;5.78;;;2.15;;
61764;SDS011;50188;48.114;-1.388;2022-09-25T00:51:52;8.43;;;2.25;;
61764;SDS011;50188;48.114;-1.388;2022-09-25T00:54:29;5.35;;;2.22;;
61764;SDS011;50188;48.114;-1.388;2022-09-25T00:56:59;4.88;;;2.33;;
61764;SDS011;50188;48.114;-1.388;2022-09-25T00:59:30;3.63;;;1.92;;
61764;SDS011;50188;48.114;-1.388;2022-09-25T01:02:00;7.03;;;3.20;;
61764;SDS011;50188;48.114;-1.388;2022-09-25T01:04:27;3.60;;;2.50;;
61764;SDS011;50188;48.114;-1.388;2022-09-25T01:06:57;4.45;;;2.00;;
61764;SDS011;50188;48.114;-1.388;2022-09-25T01:09:23;4.57;;;2.30;;
61764;SDS011;50188;48.114;-1.388;2022-09-25T01:11:49;4.75;;;2.55;;
61764;SDS011;50188;48.114;-1.388;2022-09-25T01:14:15;6.70;;;2.50;;
61764;SDS011;50188;48.114;-1.388;2022-09-25T01:16:46;3.75;;;2.10;;
61764;SDS011;50188;48.114;-1.388;2022-09-25T01:19:22;9.43;;;2.58;;
61764;SDS011;50188;48.114;-1.388;2022-09-25T01:22:26;4.57;;;2.35;;
61764;SDS011;50188;48.114;-1.388;2022-09-25T01:25:28;4.30;;;2.40;;
61764;SDS011;50188;48.114;-1.388;2022-09-25T01:31:33;5.40;;;2.83;;
61764;SDS011;50188;48.114;-1.388;2022-09-25T01:34:15;7.47;;;2.55;;
61764;SDS011;50188;48.114;-1.388;2022-09-25T01:36:51;3.88;;;3.10;;
61764;SDS011;50188;48.114;-1.388;2022-09-25T01:39:40;6.70;;;2.55;;
61764;SDS011;50188;48.114;-1.388;2022-09-25T01:42:13;6.30;;;3.22;;
61764;SDS011;50188;48.114;-1.388;2022-09-25T01:44:45;4.65;;;2.33;;
61764;SDS011;50188;48.114;-1.388;2022-09-25T01:47:20;3.85;;;2.10;;
61764;SDS011;50188;48.114;-1.388;2022-09-25T01:49:54;4.13;;;2.08;;
61764;SDS011;50188;48.114;-1.388;2022-09-25T01:52:25;8.23;;;2.35;;
61764;SDS011;50188;48.114;-1.388;2022-09-25T01:55:04;10.18;;;2.80;;
61764;SDS011;50188;48.114;-1.388;2022-09-25T01:57:35;5.75;;;2.50;;
61764;SDS011;50188;48.114;-1.388;2022-09-25T02:00:17;3.67;;;2.90;;
61764;SDS011;50188;48.114;-1.388;2022-09-25T02:05:48;5.47;;;2.40;;
61764;SDS011;50188;48.114;-1.388;2022-09-25T02:08:20;6.03;;;2.13;;
61764;SDS011;50188;48.114;-1.388;2022-09-25T02:10:56;7.65;;;2.92;;
61764;SDS011;50188;48.114;-1.388;2022-09-25T02:13:27;7.18;;;2.72;;
61764;SDS011;50188;48.114;-1.388;2022-09-25T02:16:09;6.47;;;3.38;;
61764;SDS011;50188;48.114;-1.388;2022-09-25T02:21:27;3.47;;;2.50;;
61764;SDS011;50188;48.114;-1.388;2022-09-25T02:24:21;13.95;;;2.88;;
61764;SDS011;50188;48.114;-1.388;2022-09-25T02:26:54;4.95;;;2.35;;
61764;SDS011;50188;48.114;-1.388;2022-09-25T02:29:20;6.22;;;2.70;;
61764;SDS011;50188;48.114;-1.388;2022-09-25T02:31:49;3.42;;;3.10;;
61764;SDS011;50188;48.114;-1.388;2022-09-25T02:34:20;12.25;;;3.40;;
61764;SDS011;50188;48.114;-1.388;2022-09-25T02:36:46;7.28;;;3.22;;
61764;SDS011;50188;48.114;-1.388;2022-09-25T02:39:12;4.13;;;2.53;;
61764;SDS011;50188;48.114;-1.388;2022-09-25T02:44:47;5.05;;;2.97;;
61764;SDS011;50188;48.114;-1.388;2022-09-25T02:50:28;5.43;;;3.65;;
61764;SDS011;50188;48.114;-1.388;2022-09-25T02:53:20;11.05;;;3.15;;
61764;SDS011;50188;48.114;-1.388;2022-09-25T02:56:02;3.25;;;3.05;;
61764;SDS011;50188;48.114;-1.388;2022-09-25T02:58:52;4.25;;;2.55;;
61764;SDS011;50188;48.114;-1.388;2022-09-25T03:01:22;5.90;;;3.20;;
61764;SDS011;50188;48.114;-1.388;2022-09-25T03:03:51;7.80;;;3.55;;
61764;SDS011;50188;48.114;-1.388;2022-09-25T03:06:20;3.22;;;2.72;;
61764;SDS011;50188;48.114;-1.388;2022-09-25T03:08:47;4.05;;;3.15;;
61764;SDS011;50188;48.114;-1.388;2022-09-25T03:11:17;3.05;;;2.83;;
61764;SDS011;50188;48.114;-1.388;2022-09-25T03:13:56;6.20;;;2.65;;
61764;SDS011;50188;48.114;-1.388;2022-09-25T03:16:27;13.57;;;4.07;;
61764;SDS011;50188;48.114;-1.388;2022-09-25T03:19:00;6.63;;;3.92;;
61764;SDS011;50188;48.114;-1.388;2022-09-25T03:21:26;7.68;;;3.80;;
61764;SDS011;50188;48.114;-1.388;2022-09-25T03:23:52;5.65;;;2.80;;
61764;SDS011;50188;48.114;-1.388;2022-09-25T03:26:20;4.45;;;3.58;;
61764;SDS011;50188;48.114;-1.388;2022-09-25T03:28:47;8.25;;;3.88;;
61764;SDS011;50188;48.114;-1.388;2022-09-25T03:31:13;7.85;;;4.07;;
61764;SDS011;50188;48.114;-1.388;2022-09-25T03:33:39;7.93;;;3.60;;
61764;SDS011;50188;48.114;-1.388;2022-09-25T03:36:13;6.63;;;3.55;;
61764;SDS011;50188;48.114;-1.388;2022-09-25T03:38:41;5.53;;;3.22;;
61764;SDS011;50188;48.114;-1.388;2022-09-25T03:41:10;6.35;;;3.00;;
61764;SDS011;50188;48.114;-1.388;2022-09-25T03:43:37;4.43;;;2.95;;
61764;SDS011;50188;48.114;-1.388;2022-09-25T03:46:06;5.10;;;1.70;;
61764;SDS011;50188;48.114;-1.388;2022-09-25T03:48:34;6.32;;;3.30;;
61764;SDS011;50188;48.114;-1.388;2022-09-25T03:51:00;7.90;;;3.75;;
61764;SDS011;50188;48.114;-1.388;2022-09-25T03:53:26;6.18;;;3.10;;
61764;SDS011;50188;48.114;-1.388;2022-09-25T03:55:57;5.25;;;2.92;;
61764;SDS011;50188;48.114;-1.388;2022-09-25T03:58:28;5.50;;;2.88;;
61764;SDS011;50188;48.114;-1.388;2022-09-25T04:00:54;3.53;;;2.83;;
61764;SDS011;50188;48.114;-1.388;2022-09-25T04:03:22;5.13;;;3.50;;
61764;SDS011;50188;48.114;-1.388;2022-09-25T04:05:51;6.13;;;3.67;;
61764;SDS011;50188;48.114;-1.388;2022-09-25T04:08:17;9.50;;;3.35;;
61764;SDS011;50188;48.114;-1.388;2022-09-25T04:10:43;5.00;;;2.85;;
61764;SDS011;50188;48.114;-1.388;2022-09-25T04:13:08;5.18;;;3.50;;
61764;SDS011;50188;48.114;-1.388;2022-09-25T04:15:38;2.58;;;1.98;;
61764;SDS011;50188;48.114;-1.388;2022-09-25T04:18:05;7.07;;;3.15;;
61764;SDS011;50188;48.114;-1.388;2022-09-25T04:20:31;6.05;;;3.50;;
61764;SDS011;50188;48.114;-1.388;2022-09-25T04:22:57;5.22;;;3.05;;
61764;SDS011;50188;48.114;-1.388;2022-09-25T04:25:23;6.65;;;3.25;;
61764;SDS011;50188;48.114;-1.388;2022-09-25T04:27:51;5.57;;;3.30;;
61764;SDS011;50188;48.114;-1.388;2022-09-25T04:30:18;3.90;;;2.93;;
61764;SDS011;50188;48.114;-1.388;2022-09-25T04:32:43;5.35;;;3.15;;
61764;SDS011;50188;48.114;-1.388;2022-09-25T04:35:29;6.65;;;2.67;;
61764;SDS011;50188;48.114;-1.388;2022-09-25T04:37:54;12.50;;;3.78;;
61764;SDS011;50188;48.114;-1.388;2022-09-25T04:40:20;6.15;;;2.92;;
61764;SDS011;50188;48.114;-1.388;2022-09-25T04:42:46;11.23;;;3.65;;
61764;SDS011;50188;48.114;-1.388;2022-09-25T04:45:11;6.97;;;3.47;;
61764;SDS011;50188;48.114;-1.388;2022-09-25T04:47:37;6.65;;;3.70;;
61764;SDS011;50188;48.114;-1.388;2022-09-25T04:50:02;5.20;;;3.47;;
61764;SDS011;50188;48.114;-1.388;2022-09-25T04:52:28;3.80;;;3.08;;
61764;SDS011;50188;48.114;-1.388;2022-09-25T04:54:55;4.93;;;3.10;;
61764;SDS011;50188;48.114;-1.388;2022-09-25T04:57:21;11.55;;;3.17;;
61764;SDS011;50188;48.114;-1.388;2022-09-25T04:59:47;3.35;;;2.30;;
61764;SDS011;50188;48.114;-1.388;2022-09-25T05:02:15;9.05;;;3.25;;
61764;SDS011;50188;48.114;-1.388;2022-09-25T05:04:40;4.45;;;2.75;;
61764;SDS011;50188;48.114;-1.388;2022-09-25T05:07:06;6.30;;;2.80;;
61764;SDS011;50188;48.114;-1.388;2022-09-25T05:09:32;5.35;;;3.20;;
61764;SDS011;50188;48.114;-1.388;2022-09-25T05:11:58;7.30;;;2.83;;
61764;SDS011;50188;48.114;-1.388;2022-09-25T05:14:24;6.38;;;3.33;;
61764;SDS011;50188;48.114;-1.388;2022-09-25T05:16:50;5.95;;;2.72;;
61764;SDS011;50188;48.114;-1.388;2022-09-25T05:19:15;11.25;;;2.85;;
61764;SDS011;50188;48.114;-1.388;2022-09-25T05:21:42;12.38;;;5.03;;
61764;SDS011;50188;48.114;-1.388;2022-09-25T05:24:07;9.20;;;3.78;;
61764;SDS011;50188;48.114;-1.388;2022-09-25T05:26:34;7.00;;;3.20;;
61764;SDS011;50188;48.114;-1.388;2022-09-25T05:29:01;3.95;;;2.75;;
61764;SDS011;50188;48.114;-1.388;2022-09-25T05:31:29;3.72;;;2.88;;
61764;SDS011;50188;48.114;-1.388;2022-09-25T05:33:57;8.30;;;3.25;;
61764;SDS011;50188;48.114;-1.388;2022-09-25T05:36:23;11.32;;;3.03;;
61764;SDS011;50188;48.114;-1.388;2022-09-25T05:38:49;4.28;;;2.72;;
61764;SDS011;50188;48.114;-1.388;2022-09-25T05:41:14;2.80;;;2.38;;
61764;SDS011;50188;48.114;-1.388;2022-09-25T05:43:41;4.60;;;2.85;;
61764;SDS011;50188;48.114;-1.388;2022-09-25T05:46:08;14.38;;;3.67;;
61764;SDS011;50188;48.114;-1.388;2022-09-25T05:48:35;4.93;;;2.70;;
61764;SDS011;50188;48.114;-1.388;2022-09-25T05:51:01;5.65;;;2.70;;
61764;SDS011;50188;48.114;-1.388;2022-09-25T05:53:27;8.25;;;3.20;;
61764;SDS011;50188;48.114;-1.388;2022-09-25T05:55:55;8.18;;;3.28;;
61764;SDS011;50188;48.114;-1.388;2022-09-25T05:58:23;5.80;;;3.25;;
61764;SDS011;50188;48.114;-1.388;2022-09-25T06:00:49;6.65;;;2.97;;
61764;SDS011;50188;48.114;-1.388;2022-09-25T06:03:16;16.08;;;4.07;;
61764;SDS011;50188;48.114;-1.388;2022-09-25T06:05:42;7.03;;;3.10;;
61764;SDS011;50188;48.114;-1.388;2022-09-25T06:08:11;8.30;;;3.05;;
61764;SDS011;50188;48.114;-1.388;2022-09-25T06:10:38;9.73;;;3.20;;
61764;SDS011;50188;48.114;-1.388;2022-09-25T06:13:04;7.30;;;3.22;;
61764;SDS011;50188;48.114;-1.388;2022-09-25T06:15:33;4.53;;;3.08;;
61764;SDS011;50188;48.114;-1.388;2022-09-25T06:18:01;7.82;;;2.45;;
61764;SDS011;50188;48.114;-1.388;2022-09-25T06:20:30;8.13;;;2.78;;
61764;SDS011;50188;48.114;-1.388;2022-09-25T06:22:57;14.18;;;3.60;;
61764;SDS011;50188;48.114;-1.388;2022-09-25T06:25:25;6.75;;;2.78;;
61764;SDS011;50188;48.114;-1.388;2022-09-25T06:27:56;4.47;;;2.42;;
61764;SDS011;50188;48.114;-1.388;2022-09-25T06:30:30;11.88;;;3.50;;
61764;SDS011;50188;48.114;-1.388;2022-09-25T06:33:02;7.30;;;3.78;;
61764;SDS011;50188;48.114;-1.388;2022-09-25T06:35:42;10.60;;;4.97;;
61764;SDS011;50188;48.114;-1.388;2022-09-25T06:38:09;8.85;;;5.28;;
61764;SDS011;50188;48.114;-1.388;2022-09-25T06:40:36;6.13;;;5.57;;
61764;SDS011;50188;48.114;-1.388;2022-09-25T06:43:04;12.73;;;5.45;;
61764;SDS011;50188;48.114;-1.388;2022-09-25T06:45:32;6.07;;;4.00;;
61764;SDS011;50188;48.114;-1.388;2022-09-25T06:48:05;23.33;;;5.72;;
61764;SDS011;50188;48.114;-1.388;2022-09-25T06:50:44;6.47;;;4.20;;
61764;SDS011;50188;48.114;-1.388;2022-09-25T06:53:12;6.17;;;3.37;;
61764;SDS011;50188;48.114;-1.388;2022-09-25T06:55:39;4.15;;;3.10;;
61764;SDS011;50188;48.114;-1.388;2022-09-25T06:58:06;7.18;;;2.72;;
61764;SDS011;50188;48.114;-1.388;2022-09-25T07:00:34;5.95;;;2.88;;
61764;SDS011;50188;48.114;-1.388;2022-09-25T07:02:59;4.50;;;2.60;;
61764;SDS011;50188;48.114;-1.388;2022-09-25T07:05:45;7.47;;;2.47;;
61764;SDS011;50188;48.114;-1.388;2022-09-25T07:08:12;5.25;;;2.00;;
61764;SDS011;50188;48.114;-1.388;2022-09-25T07:10:50;6.28;;;1.77;;
61764;SDS011;50188;48.114;-1.388;2022-09-25T07:13:18;5.97;;;2.80;;
61764;SDS011;50188;48.114;-1.388;2022-09-25T07:15:55;4.50;;;2.53;;
61764;SDS011;50188;48.114;-1.388;2022-09-25T07:18:23;3.55;;;1.52;;
61764;SDS011;50188;48.114;-1.388;2022-09-25T07:20:49;4.30;;;2.90;;
61764;SDS011;50188;48.114;-1.388;2022-09-25T07:23:17;9.88;;;3.13;;
61764;SDS011;50188;48.114;-1.388;2022-09-25T07:25:44;5.90;;;2.50;;
61764;SDS011;50188;48.114;-1.388;2022-09-25T07:28:10;3.30;;;1.77;;
61764;SDS011;50188;48.114;-1.388;2022-09-25T07:30:40;6.03;;;2.03;;
61764;SDS011;50188;48.114;-1.388;2022-09-25T07:33:06;8.13;;;2.33;;
61764;SDS011;50188;48.114;-1.388;2022-09-25T07:35:32;5.88;;;2.60;;
61764;SDS011;50188;48.114;-1.388;2022-09-25T07:37:59;9.82;;;2.58;;
61764;SDS011;50188;48.114;-1.388;2022-09-25T07:40:24;16.77;;;3.03;;
61764;SDS011;50188;48.114;-1.388;2022-09-25T07:42:56;3.92;;;2.70;;
61764;SDS011;50188;48.114;-1.388;2022-09-25T07:45:24;10.65;;;3.03;;
61764;SDS011;50188;48.114;-1.388;2022-09-25T07:47:49;9.68;;;3.08;;
61764;SDS011;50188;48.114;-1.388;2022-09-25T07:50:19;4.85;;;2.60;;
61764;SDS011;50188;48.114;-1.388;2022-09-25T07:52:44;4.80;;;2.40;;
61764;SDS011;50188;48.114;-1.388;2022-09-25T07:55:10;4.38;;;3.03;;
61764;SDS011;50188;48.114;-1.388;2022-09-25T07:57:36;6.13;;;2.15;;
61764;SDS011;50188;48.114;-1.388;2022-09-25T08:00:01;5.90;;;2.38;;
61764;SDS011;50188;48.114;-1.388;2022-09-25T08:02:28;6.88;;;2.90;;
61764;SDS011;50188;48.114;-1.388;2022-09-25T08:04:54;11.43;;;2.85;;
61764;SDS011;50188;48.114;-1.388;2022-09-25T08:07:19;6.63;;;2.47;;
61764;SDS011;50188;48.114;-1.388;2022-09-25T08:09:45;6.65;;;2.25;;
61764;SDS011;50188;48.114;-1.388;2022-09-25T08:12:11;12.65;;;2.20;;
61764;SDS011;50188;48.114;-1.388;2022-09-25T08:14:37;8.85;;;2.28;;
61764;SDS011;50188;48.114;-1.388;2022-09-25T08:17:02;4.97;;;1.67;;
61764;SDS011;50188;48.114;-1.388;2022-09-25T08:19:28;8.48;;;2.88;;
61764;SDS011;50188;48.114;-1.388;2022-09-25T08:21:53;7.63;;;2.05;;
61764;SDS011;50188;48.114;-1.388;2022-09-25T08:24:19;7.28;;;2.92;;
61764;SDS011;50188;48.114;-1.388;2022-09-25T08:26:45;4.50;;;2.60;;
61764;SDS011;50188;48.114;-1.388;2022-09-25T08:29:11;6.15;;;1.75;;
61764;SDS011;50188;48.114;-1.388;2022-09-25T08:31:36;6.03;;;2.08;;
61764;SDS011;50188;48.114;-1.388;2022-09-25T08:34:02;5.55;;;1.83;;
61764;SDS011;50188;48.114;-1.388;2022-09-25T08:36:28;4.05;;;1.58;;
61764;SDS011;50188;48.114;-1.388;2022-09-25T08:38:53;7.20;;;1.73;;
61764;SDS011;50188;48.114;-1.388;2022-09-25T08:41:26;7.55;;;1.98;;
61764;SDS011;50188;48.114;-1.388;2022-09-25T08:44:00;3.15;;;1.85;;
61764;SDS011;50188;48.114;-1.388;2022-09-25T08:46:50;4.15;;;1.98;;
61764;SDS011;50188;48.114;-1.388;2022-09-25T08:50:00;8.85;;;2.03;;
61764;SDS011;50188;48.114;-1.388;2022-09-25T08:52:35;6.05;;;1.50;;
61764;SDS011;50188;48.114;-1.388;2022-09-25T08:55:11;4.43;;;1.63;;
61764;SDS011;50188;48.114;-1.388;2022-09-25T08:57:40;5.97;;;1.70;;
61764;SDS011;50188;48.114;-1.388;2022-09-25T09:00:21;5.30;;;1.95;;
61764;SDS011;50188;48.114;-1.388;2022-09-25T09:05:23;8.70;;;2.10;;
61764;SDS011;50188;48.114;-1.388;2022-09-25T09:07:54;8.25;;;2.70;;
61764;SDS011;50188;48.114;-1.388;2022-09-25T09:10:30;5.00;;;1.55;;
61764;SDS011;50188;48.114;-1.388;2022-09-25T09:13:04;7.00;;;2.47;;
